Time;durP1;ratioP1;P1;durP2;ratioP2;P2;SDS_P1;SDS_P2;PMS_P1;PMS_P2;Temp;Humidity;BMP_temperature;BMP_pressure;BME280_temperature;BME280_humidity;BME280_pressure;Samples;Min_cycle;Max_cycle;Signal;HPM_P1;HPM_P2
2023/08/17 00:01:16;;;;;;;7.00;6.30;;;19.30;99.90;;;;;;5098116;28;20656;-77
2023/08/17 00:03:43;;;;;;;6.30;5.70;;;19.30;99.90;;;;;;5086727;28;20637;-77
2023/08/17 00:06:10;;;;;;;7.00;5.20;;;19.20;99.90;;;;;;5088850;28;20824;-77
2023/08/17 00:08:37;;;;;;;6.37;4.67;;;19.20;99.90;;;;;;5098201;28;21215;-77
2023/08/17 00:11:04;;;;;;;6.00;5.43;;;19.30;99.90;;;;;;5100621;28;20620;-77
2023/08/17 00:13:32;;;;;;;7.00;5.90;;;19.30;99.90;;;;;;5092175;28;20639;-76
2023/08/17 00:15:59;;;;;;;6.37;5.63;;;19.20;99.90;;;;;;5091373;28;20628;-77
2023/08/17 00:18:25;;;;;;;6.03;5.43;;;19.20;99.90;;;;;;5097886;28;20623;-77
2023/08/17 00:20:52;;;;;;;5.97;5.37;;;19.20;99.90;;;;;;5090897;28;20625;-77
2023/08/17 00:23:20;;;;;;;6.40;5.80;;;19.10;99.90;;;;;;5093121;28;20695;-77
2023/08/17 00:25:47;;;;;;;6.10;5.50;;;19.10;99.90;;;;;;5090082;28;20625;-77
2023/08/17 00:28:14;;;;;;;6.80;6.10;;;19.10;99.90;;;;;;5088974;28;20845;-77
2023/08/17 00:30:42;;;;;;;6.03;5.43;;;19.10;99.90;;;;;;5097014;28;20619;-76
2023/08/17 00:33:09;;;;;;;6.53;5.80;;;19.10;99.90;;;;;;5097362;28;20628;-77
2023/08/17 00:35:35;;;;;;;7.43;5.53;;;19.10;99.90;;;;;;5087028;28;20631;-76
2023/08/17 00:38:02;;;;;;;5.63;5.20;;;19.10;99.90;;;;;;5094302;28;20721;-77
2023/08/17 00:40:29;;;;;;;6.90;6.20;;;19.00;99.90;;;;;;5089553;28;20619;-77
2023/08/17 00:42:56;;;;;;;7.07;5.17;;;19.00;99.90;;;;;;5096257;28;20871;-77
2023/08/17 00:45:24;;;;;;;6.37;5.77;;;19.00;99.90;;;;;;5091807;28;20616;-77
2023/08/17 00:47:52;;;;;;;7.17;6.47;;;19.10;99.90;;;;;;5088280;28;20633;-78
2023/08/17 00:50:19;;;;;;;6.13;5.47;;;19.10;99.90;;;;;;5092910;28;20620;-77
2023/08/17 00:52:46;;;;;;;5.80;4.97;;;19.20;99.90;;;;;;5088802;28;20724;-77
2023/08/17 00:55:13;;;;;;;8.07;6.17;;;19.10;99.90;;;;;;5097345;28;20970;-77
2023/08/17 00:57:41;;;;;;;5.60;5.00;;;19.00;99.90;;;;;;5088482;28;20633;-77
2023/08/17 01:00:10;;;;;;;5.37;4.87;;;19.00;99.90;;;;;;5090712;28;20620;-77
2023/08/17 01:02:37;;;;;;;6.37;5.80;;;19.10;99.90;;;;;;5100782;28;21010;-77
2023/08/17 01:05:06;;;;;;;5.53;5.03;;;19.00;99.90;;;;;;5100818;28;20627;-77
2023/08/17 01:07:32;;;;;;;5.07;4.60;;;18.90;99.90;;;;;;5086539;28;20640;-77
2023/08/17 01:10:00;;;;;;;5.20;4.70;;;19.10;99.90;;;;;;5087934;28;21047;-77
2023/08/17 01:12:31;;;;;;;6.30;5.70;;;19.10;99.90;;;;;;5088396;28;20616;-77
2023/08/17 01:15:06;;;;;;;7.90;6.00;;;19.10;99.90;;;;;;5080626;28;21185;-76
2023/08/17 01:17:38;;;;;;;5.23;4.57;;;19.00;99.90;;;;;;5088864;28;20731;-76
2023/08/17 01:20:09;;;;;;;7.83;5.47;;;19.00;99.90;;;;;;5080590;28;21200;-77
2023/08/17 01:22:37;;;;;;;5.77;5.13;;;19.00;99.90;;;;;;5099285;28;20647;-77
2023/08/17 01:25:06;;;;;;;7.30;5.87;;;18.90;99.90;;;;;;5086848;28;20715;-77
2023/08/17 01:27:39;;;;;;;6.03;4.93;;;18.90;99.90;;;;;;5094671;28;20640;-77
2023/08/17 01:30:07;;;;;;;7.43;5.43;;;19.00;99.90;;;;;;5105289;28;20697;-77
2023/08/17 01:32:42;;;;;;;6.53;5.87;;;19.20;99.90;;;;;;5100192;28;20656;-77
2023/08/17 01:35:19;;;;;;;7.23;6.20;;;19.30;99.90;;;;;;5093810;28;20612;-77
2023/08/17 01:37:46;;;;;;;5.73;4.80;;;19.20;99.90;;;;;;5090653;28;20727;-76
2023/08/17 01:40:16;;;;;;;6.87;4.77;;;19.30;99.90;;;;;;5096312;28;20751;-77
2023/08/17 01:42:44;;;;;;;8.90;7.90;;;19.40;99.90;;;;;;5095395;28;21212;-77
2023/08/17 01:45:11;;;;;;;6.27;5.67;;;19.40;99.90;;;;;;5104694;28;20621;-77
2023/08/17 01:47:38;;;;;;;6.93;6.23;;;19.40;99.90;;;;;;5103952;28;20731;-77
2023/08/17 01:50:06;;;;;;;8.77;6.20;;;19.40;99.90;;;;;;5094271;28;20654;-76
2023/08/17 01:52:33;;;;;;;7.03;6.33;;;19.30;99.90;;;;;;5097868;28;20618;-76
2023/08/17 01:54:59;;;;;;;8.80;6.97;;;19.40;99.90;;;;;;5100721;28;20716;-77
2023/08/17 01:57:28;;;;;;;10.90;6.67;;;19.50;99.90;;;;;;5105387;28;20733;-77
2023/08/17 01:59:54;;;;;;;9.10;7.97;;;19.50;99.90;;;;;;5095510;28;20721;-76
2023/08/17 02:02:21;;;;;;;6.97;5.83;;;19.50;99.90;;;;;;5099465;28;20648;-77
2023/08/17 02:04:48;;;;;;;9.47;8.23;;;19.50;99.90;;;;;;5102850;28;20731;-76
2023/08/17 02:07:15;;;;;;;8.13;7.03;;;19.50;99.90;;;;;;5102810;28;21573;-76
2023/08/17 02:09:42;;;;;;;11.70;8.10;;;19.50;99.90;;;;;;5105528;28;20724;-76
2023/08/17 02:12:09;;;;;;;8.57;7.50;;;19.50;99.90;;;;;;5106659;28;20616;-76
2023/08/17 02:14:38;;;;;;;8.53;7.10;;;19.50;99.90;;;;;;5096743;28;20694;-76
2023/08/17 02:17:05;;;;;;;7.77;6.40;;;19.50;99.90;;;;;;5090838;28;20971;-76
2023/08/17 02:19:33;;;;;;;7.67;6.17;;;19.40;99.90;;;;;;5093977;28;20631;-76
2023/08/17 02:22:03;;;;;;;8.83;7.57;;;19.50;99.90;;;;;;5089350;28;20677;-75
2023/08/17 02:24:31;;;;;;;8.67;6.60;;;19.50;99.90;;;;;;5094941;28;21046;-76
2023/08/17 02:26:59;;;;;;;8.23;7.20;;;19.50;99.90;;;;;;5105567;28;20686;-76
2023/08/17 02:29:26;;;;;;;7.50;6.50;;;19.60;99.90;;;;;;5098742;28;20677;-76
2023/08/17 02:31:55;;;;;;;8.63;6.50;;;19.60;99.90;;;;;;5103357;28;20627;-76
2023/08/17 02:34:22;;;;;;;7.77;6.83;;;19.50;99.90;;;;;;5091320;28;20604;-76
2023/08/17 02:36:50;;;;;;;9.20;6.90;;;19.50;99.90;;;;;;5099920;28;21231;-76
2023/08/17 02:39:17;;;;;;;12.10;8.00;;;19.50;99.90;;;;;;5081912;28;21003;-76
2023/08/17 02:41:48;;;;;;;10.27;7.20;;;19.50;99.90;;;;;;5101521;28;20624;-76
2023/08/17 02:44:16;;;;;;;13.73;9.17;;;19.50;99.90;;;;;;5095973;28;20725;-76
2023/08/17 02:46:44;;;;;;;11.60;8.80;;;19.60;99.90;;;;;;5095741;28;21008;-76
2023/08/17 02:49:13;;;;;;;10.23;8.70;;;19.50;99.90;;;;;;5095531;28;20616;-76
2023/08/17 02:51:41;;;;;;;10.27;7.57;;;19.50;99.90;;;;;;5101773;28;20649;-76
2023/08/17 02:54:09;;;;;;;14.80;9.00;;;19.50;99.90;;;;;;5099599;28;21220;-76
2023/08/17 02:56:36;;;;;;;13.30;8.60;;;19.50;99.90;;;;;;5099660;28;20648;-76
2023/08/17 02:59:05;;;;;;;10.80;8.13;;;19.50;99.90;;;;;;5095633;28;20627;-76
2023/08/17 03:01:32;;;;;;;12.70;8.90;;;19.50;99.90;;;;;;5101375;28;20683;-76
2023/08/17 03:04:00;;;;;;;10.03;8.70;;;19.50;99.90;;;;;;5091189;28;21049;-76
2023/08/17 03:06:29;;;;;;;14.07;8.17;;;19.40;99.90;;;;;;5096549;28;21038;-76
2023/08/17 03:08:57;;;;;;;13.77;8.63;;;19.50;99.90;;;;;;5090206;28;20634;-76
2023/08/17 03:11:24;;;;;;;11.37;8.20;;;19.50;99.90;;;;;;5100018;28;20646;-77
2023/08/17 03:13:50;;;;;;;12.53;10.20;;;19.40;99.90;;;;;;5091466;28;21240;-76
2023/08/17 03:16:17;;;;;;;9.23;6.93;;;19.50;99.90;;;;;;5091403;28;21171;-75
2023/08/17 03:18:44;;;;;;;9.77;7.40;;;19.60;99.90;;;;;;5089975;28;20603;-76
2023/08/17 03:21:11;;;;;;;11.00;8.40;;;19.50;99.90;;;;;;5090619;28;20611;-76
2023/08/17 03:23:39;;;;;;;11.80;9.80;;;19.60;99.90;;;;;;5090085;28;20778;-76
2023/08/17 03:26:06;;;;;;;11.63;9.20;;;19.60;99.90;;;;;;5082333;28;20609;-76
2023/08/17 03:28:32;;;;;;;10.40;8.00;;;19.60;99.90;;;;;;5090029;28;21010;-76
2023/08/17 03:30:59;;;;;;;15.57;8.83;;;19.60;99.90;;;;;;5090689;28;20629;-76
2023/08/17 03:33:26;;;;;;;12.70;8.83;;;19.60;99.90;;;;;;5092252;28;20632;-76
2023/08/17 03:35:53;;;;;;;15.50;9.03;;;19.60;99.90;;;;;;5090795;28;21014;-76
2023/08/17 03:38:20;;;;;;;11.40;8.67;;;19.60;99.90;;;;;;5094383;28;21192;-76
2023/08/17 03:40:48;;;;;;;12.20;8.13;;;19.60;99.90;;;;;;5099852;28;20661;-77
2023/08/17 03:43:15;;;;;;;12.37;8.77;;;19.60;99.90;;;;;;5093643;28;21055;-76
2023/08/17 03:45:42;;;;;;;11.70;8.50;;;19.60;99.90;;;;;;5098209;28;20648;-76
2023/08/17 03:48:09;;;;;;;14.73;10.00;;;19.70;99.90;;;;;;5093650;28;20617;-77
2023/08/17 03:50:36;;;;;;;12.80;9.67;;;19.70;99.90;;;;;;5098315;28;20618;-77
2023/08/17 03:53:03;;;;;;;12.33;10.00;;;19.60;99.90;;;;;;5094839;28;20624;-77
2023/08/17 03:55:30;;;;;;;12.63;9.80;;;19.60;99.90;;;;;;5101121;28;20610;-77
2023/08/17 03:57:58;;;;;;;16.73;10.57;;;19.60;99.90;;;;;;5095062;28;20625;-77
2023/08/17 04:00:24;;;;;;;13.70;10.20;;;19.70;99.90;;;;;;5089208;28;20627;-77
2023/08/17 04:02:51;;;;;;;12.93;9.30;;;19.60;99.90;;;;;;5095250;28;20652;-77
2023/08/17 04:05:18;;;;;;;14.17;11.03;;;19.60;99.90;;;;;;5089205;28;20656;-77
2023/08/17 04:07:45;;;;;;;12.20;9.10;;;19.60;99.90;;;;;;5093152;28;20643;-77
2023/08/17 04:10:12;;;;;;;11.40;8.23;;;19.60;99.90;;;;;;5090738;28;20626;-77
2023/08/17 04:12:38;;;;;;;16.37;10.97;;;19.70;99.90;;;;;;5089199;28;20630;-77
2023/08/17 04:15:07;;;;;;;10.30;8.53;;;19.70;99.90;;;;;;5091687;28;21043;-77
2023/08/17 04:17:34;;;;;;;15.80;11.10;;;19.60;99.90;;;;;;5085545;28;20637;-76
2023/08/17 04:20:01;;;;;;;9.87;8.40;;;19.60;99.90;;;;;;5087127;28;20722;-77
2023/08/17 04:22:27;;;;;;;12.90;9.43;;;19.50;99.90;;;;;;5090135;28;21481;-77
2023/08/17 04:24:54;;;;;;;12.47;9.53;;;19.60;99.90;;;;;;5087053;28;20728;-77
2023/08/17 04:27:21;;;;;;;14.67;9.60;;;19.60;99.90;;;;;;5089694;28;20635;-77
2023/08/17 04:29:48;;;;;;;12.47;10.37;;;19.60;99.90;;;;;;5086923;28;20727;-77
2023/08/17 04:32:17;;;;;;;14.10;10.10;;;19.40;99.90;;;;;;5090712;28;20617;-77
2023/08/17 04:34:44;;;;;;;11.97;9.00;;;19.50;99.90;;;;;;5089517;28;20613;-77
2023/08/17 04:37:11;;;;;;;15.40;9.40;;;19.50;99.90;;;;;;5093011;28;20711;-77
2023/08/17 04:39:37;;;;;;;13.93;9.67;;;19.50;99.90;;;;;;5092672;28;20711;-77
2023/08/17 04:42:05;;;;;;;14.33;9.90;;;19.50;99.90;;;;;;5088602;28;20678;-76
2023/08/17 04:44:31;;;;;;;16.13;11.23;;;19.50;99.90;;;;;;5086124;28;20661;-75
2023/08/17 04:46:58;;;;;;;14.60;10.07;;;19.40;99.90;;;;;;5085523;28;20738;-75
2023/08/17 04:49:27;;;;;;;15.47;9.27;;;19.50;99.90;;;;;;5084890;28;20633;-75
2023/08/17 04:51:53;;;;;;;15.60;9.90;;;19.50;99.90;;;;;;5089673;28;20661;-75
2023/08/17 04:54:20;;;;;;;11.90;10.00;;;19.50;99.90;;;;;;5076961;28;20625;-75
2023/08/17 04:56:47;;;;;;;14.00;9.87;;;19.60;99.90;;;;;;5087007;28;20629;-73
2023/08/17 04:59:14;;;;;;;13.57;9.87;;;19.50;99.90;;;;;;5082832;28;20658;-76
2023/08/17 05:01:41;;;;;;;12.80;9.23;;;19.60;99.90;;;;;;5068846;28;20611;-77
2023/08/17 05:04:08;;;;;;;13.57;9.50;;;19.60;99.90;;;;;;5093495;28;20680;-77
2023/08/17 05:06:38;;;;;;;11.97;10.40;;;19.70;99.90;;;;;;5095373;28;20986;-77
2023/08/17 05:09:06;;;;;;;16.20;10.13;;;19.70;99.90;;;;;;5094016;28;20634;-77
2023/08/17 05:11:33;;;;;;;12.23;8.63;;;19.70;99.90;;;;;;5097273;28;20623;-79
2023/08/17 05:14:00;;;;;;;16.23;9.00;;;19.70;99.90;;;;;;5093131;28;20618;-79
2023/08/17 05:16:26;;;;;;;13.23;10.00;;;19.70;99.90;;;;;;5087782;28;20721;-79
2023/08/17 05:18:53;;;;;;;14.17;10.87;;;19.70;99.90;;;;;;5094084;28;20637;-81
2023/08/17 05:21:20;;;;;;;13.40;9.37;;;19.70;99.90;;;;;;5087845;28;20631;-75
2023/08/17 05:23:48;;;;;;;13.47;9.10;;;19.80;99.90;;;;;;5092208;28;20658;-74
2023/08/17 05:26:15;;;;;;;14.87;11.30;;;19.80;99.90;;;;;;5088110;28;20725;-75
2023/08/17 05:28:43;;;;;;;15.10;10.13;;;19.90;99.90;;;;;;5090635;28;20629;-74
2023/08/17 05:31:10;;;;;;;10.20;8.47;;;20.00;99.90;;;;;;5085778;28;20663;-74
2023/08/17 05:33:37;;;;;;;16.40;10.57;;;20.00;99.90;;;;;;5088046;28;21274;-74
2023/08/17 05:36:04;;;;;;;15.40;9.57;;;20.00;99.90;;;;;;5093082;28;20621;-74
2023/08/17 05:38:31;;;;;;;11.63;9.50;;;20.00;99.90;;;;;;5102438;28;20630;-74
2023/08/17 05:41:01;;;;;;;11.43;8.47;;;20.00;99.90;;;;;;5095808;28;21110;-74
2023/08/17 05:43:28;;;;;;;11.13;8.70;;;20.10;99.90;;;;;;5097067;28;20649;-74
2023/08/17 05:45:57;;;;;;;11.43;8.73;;;20.10;99.90;;;;;;5087382;28;20649;-74
2023/08/17 05:48:24;;;;;;;11.70;8.77;;;20.20;99.90;;;;;;5096561;28;20627;-74
2023/08/17 05:50:51;;;;;;;10.73;9.60;;;20.10;99.90;;;;;;5095248;28;20627;-74
2023/08/17 05:53:18;;;;;;;12.23;10.20;;;20.00;99.90;;;;;;5096198;28;20621;-74
2023/08/17 05:55:44;;;;;;;15.70;10.27;;;19.90;99.90;;;;;;5088096;28;20626;-75
2023/08/17 05:58:13;;;;;;;13.80;10.03;;;19.90;99.90;;;;;;5087771;28;20621;-75
2023/08/17 06:00:40;;;;;;;11.37;9.60;;;19.90;99.90;;;;;;5082595;28;20691;-75
2023/08/17 06:03:07;;;;;;;12.83;9.67;;;20.00;99.90;;;;;;5086619;28;21012;-75
2023/08/17 06:05:34;;;;;;;8.77;7.07;;;20.00;99.90;;;;;;5086807;28;20637;-75
2023/08/17 06:08:01;;;;;;;9.10;8.20;;;20.00;99.90;;;;;;5090542;28;20645;-74
2023/08/17 06:10:27;;;;;;;11.73;9.20;;;20.10;99.90;;;;;;5089732;28;20626;-76
2023/08/17 06:12:54;;;;;;;9.00;8.07;;;20.10;99.90;;;;;;5090556;28;20640;-76
2023/08/17 06:15:23;;;;;;;10.93;8.63;;;20.20;99.90;;;;;;5091378;28;20706;-76
2023/08/17 06:17:50;;;;;;;11.30;8.57;;;20.30;99.90;;;;;;5094184;28;20641;-76
2023/08/17 06:20:18;;;;;;;11.10;9.20;;;20.30;99.90;;;;;;5098776;28;21025;-76
2023/08/17 06:22:44;;;;;;;13.03;9.17;;;20.30;99.90;;;;;;5094229;28;20729;-76
2023/08/17 06:25:11;;;;;;;13.57;9.60;;;20.40;99.90;;;;;;5103305;28;21063;-76
2023/08/17 06:27:38;;;;;;;11.70;9.63;;;20.40;99.90;;;;;;5092391;28;20738;-77
2023/08/17 06:30:08;;;;;;;11.83;9.53;;;20.40;99.90;;;;;;5090121;28;20634;-76
2023/08/17 06:32:38;;;;;;;11.37;8.43;;;20.30;99.90;;;;;;5103425;28;20630;-76
2023/08/17 06:35:06;;;;;;;9.33;8.37;;;20.40;99.90;;;;;;5097220;28;21190;-77
2023/08/17 06:37:33;;;;;;;14.30;8.40;;;20.40;99.90;;;;;;5099828;28;20630;-77
2023/08/17 06:39:59;;;;;;;13.60;9.30;;;20.40;99.90;;;;;;5090452;28;20627;-77
2023/08/17 06:42:26;;;;;;;9.70;8.07;;;20.40;99.90;;;;;;5091291;28;20674;-77
2023/08/17 06:44:53;;;;;;;10.60;7.90;;;20.40;99.90;;;;;;5091323;28;20666;-77
2023/08/17 06:47:20;;;;;;;12.97;7.50;;;20.40;99.90;;;;;;5100129;28;21168;-77
2023/08/17 06:49:48;;;;;;;11.20;8.50;;;20.40;99.90;;;;;;5093064;28;20708;-77
2023/08/17 06:52:15;;;;;;;8.70;7.80;;;20.40;99.90;;;;;;5099596;28;20622;-77
2023/08/17 06:54:42;;;;;;;9.23;7.83;;;20.50;99.90;;;;;;5089670;28;21163;-77
2023/08/17 06:57:08;;;;;;;8.70;7.00;;;20.80;99.90;;;;;;5096196;28;20623;-77
2023/08/17 06:59:35;;;;;;;10.03;7.73;;;21.10;99.90;;;;;;5095261;28;20637;-74
2023/08/17 07:02:02;;;;;;;9.73;7.53;;;21.30;99.90;;;;;;5098607;28;20618;-76
2023/08/17 07:04:29;;;;;;;13.50;9.27;;;21.50;99.90;;;;;;5099961;28;20644;-76
2023/08/17 07:07:00;;;;;;;10.00;8.80;;;21.60;99.90;;;;;;5093585;28;20646;-76
2023/08/17 07:09:28;;;;;;;8.87;7.83;;;21.60;99.90;;;;;;5089578;28;20635;-77
2023/08/17 07:12:01;;;;;;;8.37;7.57;;;21.70;99.90;;;;;;5089229;28;20677;-77
2023/08/17 07:14:29;;;;;;;11.37;8.73;;;21.70;99.90;;;;;;5097998;28;20644;-77
2023/08/17 07:16:55;;;;;;;9.13;7.07;;;21.60;99.90;;;;;;5094617;28;20627;-77
2023/08/17 07:19:23;;;;;;;9.10;8.20;;;21.50;99.90;;;;;;5089449;28;20618;-77
2023/08/17 07:21:50;;;;;;;10.07;7.90;;;21.50;99.90;;;;;;5088223;28;20656;-76
2023/08/17 07:24:18;;;;;;;11.47;8.70;;;21.70;99.90;;;;;;5098864;28;20654;-78
2023/08/17 07:26:45;;;;;;;9.00;7.23;;;21.60;99.90;;;;;;5099127;28;20615;-77
2023/08/17 07:29:12;;;;;;;14.33;9.53;;;21.70;99.90;;;;;;5081411;28;21208;-78
2023/08/17 07:31:39;;;;;;;8.77;7.57;;;21.60;99.90;;;;;;5097486;28;20625;-77
2023/08/17 07:34:06;;;;;;;10.77;8.43;;;21.80;99.90;;;;;;5089310;28;20654;-77
2023/08/17 07:36:33;;;;;;;12.47;8.80;;;21.80;99.90;;;;;;5084590;28;20626;-77
2023/08/17 07:39:00;;;;;;;9.27;7.20;;;21.60;99.90;;;;;;5096584;28;20685;-77
2023/08/17 07:41:28;;;;;;;9.70;7.47;;;21.80;99.90;;;;;;5096412;28;21201;-77
2023/08/17 07:43:55;;;;;;;8.60;6.97;;;22.10;99.90;;;;;;5089166;28;20739;-77
2023/08/17 07:46:22;;;;;;;10.10;7.93;;;22.20;99.90;;;;;;5086449;28;21035;-77
2023/08/17 07:48:49;;;;;;;8.60;7.73;;;22.30;99.90;;;;;;5091808;28;20631;-77
2023/08/17 07:51:16;;;;;;;7.80;6.57;;;22.40;99.90;;;;;;5096864;28;20627;-77
2023/08/17 07:53:42;;;;;;;13.93;6.17;;;22.50;99.90;;;;;;5094056;28;20650;-77
2023/08/17 07:56:09;;;;;;;8.63;7.77;;;22.60;99.90;;;;;;5089071;28;20718;-77
2023/08/17 07:58:37;;;;;;;7.87;7.17;;;22.60;99.90;;;;;;5088374;28;20721;-76
2023/08/17 08:01:05;;;;;;;8.10;7.27;;;22.60;99.90;;;;;;5089365;28;20624;-75
2023/08/17 08:03:32;;;;;;;8.40;6.93;;;22.80;99.90;;;;;;5091577;28;21255;-79
2023/08/17 08:05:59;;;;;;;8.83;6.83;;;22.90;99.90;;;;;;5098949;28;20631;-79
2023/08/17 08:08:25;;;;;;;8.23;7.43;;;22.90;99.90;;;;;;5093946;28;20646;-79
2023/08/17 08:10:54;;;;;;;7.37;6.67;;;22.80;99.90;;;;;;5093654;28;20622;-79
2023/08/17 08:13:20;;;;;;;9.27;8.30;;;22.90;99.90;;;;;;5101662;28;21262;-79
2023/08/17 08:15:49;;;;;;;7.83;6.77;;;23.00;99.90;;;;;;5095355;28;20618;-79
2023/08/17 08:18:16;;;;;;;10.40;7.83;;;22.90;99.90;;;;;;5098142;28;20656;-79
2023/08/17 08:20:42;;;;;;;7.47;6.77;;;23.30;99.90;;;;;;5088106;28;20846;-79
2023/08/17 08:23:09;;;;;;;8.00;7.17;;;23.20;99.90;;;;;;5088675;28;20627;-80
2023/08/17 08:25:36;;;;;;;8.23;6.50;;;23.30;99.90;;;;;;5097389;28;20665;-79
2023/08/17 08:28:03;;;;;;;10.40;6.90;;;23.20;99.90;;;;;;5089125;28;20626;-79
2023/08/17 08:30:30;;;;;;;13.20;6.57;;;23.50;99.90;;;;;;5087698;28;20627;-79
2023/08/17 08:32:59;;;;;;;7.50;6.80;;;23.50;99.90;;;;;;5089351;28;20637;-80
2023/08/17 08:35:26;;;;;;;8.43;7.17;;;23.70;99.90;;;;;;5091651;28;20633;-80
2023/08/17 08:37:55;;;;;;;7.47;6.77;;;23.60;99.90;;;;;;5087865;28;20621;-80
2023/08/17 08:40:28;;;;;;;6.33;5.73;;;23.70;99.90;;;;;;5088686;28;20686;-80
2023/08/17 08:42:55;;;;;;;7.13;5.97;;;23.80;99.90;;;;;;5096878;28;20622;-79
2023/08/17 08:45:22;;;;;;;7.03;6.37;;;23.60;99.90;;;;;;5088192;28;21229;-79
2023/08/17 08:47:50;;;;;;;7.40;6.50;;;23.50;99.90;;;;;;5088395;28;20618;-79
2023/08/17 08:50:21;;;;;;;6.53;5.73;;;23.80;99.90;;;;;;5091517;28;20626;-79
2023/08/17 08:52:54;;;;;;;6.50;5.90;;;23.80;99.90;;;;;;5096296;28;20618;-80
2023/08/17 08:55:25;;;;;;;4.90;4.50;;;24.00;99.90;;;;;;5090625;28;20963;-79
2023/08/17 08:57:54;;;;;;;8.00;5.30;;;24.10;99.90;;;;;;5092301;28;20627;-80
2023/08/17 09:00:21;;;;;;;8.73;6.03;;;24.10;99.90;;;;;;5094737;28;20776;-80
2023/08/17 09:02:49;;;;;;;6.93;5.53;;;24.00;99.90;;;;;;5093783;28;20646;-80
2023/08/17 09:05:18;;;;;;;5.90;5.13;;;23.60;99.90;;;;;;5097277;28;20673;-79
2023/08/17 09:07:48;;;;;;;6.10;5.50;;;23.60;99.90;;;;;;5102267;28;21273;-79
2023/08/17 09:10:16;;;;;;;5.17;4.67;;;23.90;99.90;;;;;;5087795;28;20632;-80
2023/08/17 09:12:43;;;;;;;5.03;4.20;;;24.10;99.90;;;;;;5089137;28;20674;-79
2023/08/17 09:15:10;;;;;;;7.07;5.23;;;24.30;99.90;;;;;;5089482;28;21043;-80
2023/08/17 09:17:37;;;;;;;5.13;4.63;;;24.10;99.90;;;;;;5093514;28;20719;-79
2023/08/17 09:20:04;;;;;;;6.00;5.23;;;24.20;99.90;;;;;;5079894;28;20674;-80
2023/08/17 09:22:40;;;;;;;4.63;4.23;;;24.20;99.90;;;;;;5088307;28;20670;-80
2023/08/17 09:25:08;;;;;;;4.40;4.00;;;24.30;99.90;;;;;;5080626;28;20664;-80
2023/08/17 09:27:35;;;;;;;7.63;5.30;;;24.70;99.90;;;;;;5087594;28;21194;-79
2023/08/17 09:30:06;;;;;;;5.83;5.33;;;25.00;99.90;;;;;;5092335;28;20645;-80
2023/08/17 09:32:34;;;;;;;4.90;4.60;;;25.00;99.90;;;;;;5086618;28;20625;-79
2023/08/17 09:35:05;;;;;;;4.07;3.77;;;25.20;99.90;;;;;;5094618;28;20667;-80
2023/08/17 09:37:32;;;;;;;5.30;4.53;;;25.30;99.90;;;;;;5087323;28;20624;-80
2023/08/17 09:40:01;;;;;;;4.40;4.00;;;25.40;99.90;;;;;;5088293;28;20628;-80
2023/08/17 09:42:28;;;;;;;4.27;3.90;;;25.70;99.70;;;;;;5091207;28;20821;-79
2023/08/17 09:44:55;;;;;;;5.07;4.57;;;25.80;98.80;;;;;;5091289;28;20722;-79
2023/08/17 09:47:23;;;;;;;4.60;4.20;;;25.90;97.30;;;;;;5092076;28;20630;-79
2023/08/17 09:49:50;;;;;;;3.80;3.50;;;26.00;98.00;;;;;;5090917;28;20647;-80
2023/08/17 09:52:17;;;;;;;4.00;3.70;;;25.90;99.00;;;;;;5091840;28;20625;-80
2023/08/17 09:54:46;;;;;;;4.60;4.20;;;25.80;99.20;;;;;;5092441;28;20720;-79
2023/08/17 09:57:15;;;;;;;6.20;5.60;;;26.10;98.30;;;;;;5096346;28;20632;-80
2023/08/17 09:59:42;;;;;;;5.27;4.87;;;26.30;97.90;;;;;;5093104;28;20626;-79
2023/08/17 10:02:19;;;;;;;4.50;4.10;;;26.40;98.20;;;;;;5090960;28;20653;-81
2023/08/17 10:04:49;;;;;;;4.57;4.13;;;26.70;99.20;;;;;;5091146;28;21084;-80
2023/08/17 10:07:19;;;;;;;5.27;4.87;;;26.60;99.10;;;;;;5099605;28;20638;-80
2023/08/17 10:09:50;;;;;;;4.90;4.47;;;26.70;97.60;;;;;;5086688;28;20612;-79
2023/08/17 10:12:24;;;;;;;6.30;5.80;;;26.70;98.60;;;;;;5090800;28;20992;-79
2023/08/17 10:14:56;;;;;;;4.97;4.57;;;26.90;97.80;;;;;;5089996;28;21063;-80
2023/08/17 10:17:26;;;;;;;4.80;4.40;;;27.10;98.30;;;;;;5098720;28;20628;-79
2023/08/17 10:19:57;;;;;;;7.40;5.53;;;27.10;98.30;;;;;;5088303;28;20625;-79
2023/08/17 10:22:29;;;;;;;5.63;5.10;;;27.00;96.30;;;;;;5091831;28;21272;-80
2023/08/17 10:24:58;;;;;;;4.90;4.47;;;26.80;97.70;;;;;;5089280;28;20659;-78
2023/08/17 10:27:27;;;;;;;5.10;4.70;;;26.80;97.50;;;;;;5099744;28;20656;-79
2023/08/17 10:29:54;;;;;;;6.40;5.20;;;27.00;96.20;;;;;;5099120;28;21009;-80
2023/08/17 10:32:23;;;;;;;5.10;4.70;;;27.00;96.60;;;;;;5098760;28;20623;-79
2023/08/17 10:34:51;;;;;;;5.60;5.10;;;27.10;96.30;;;;;;5099365;28;20622;-79
2023/08/17 10:37:19;;;;;;;5.90;5.40;;;27.30;95.00;;;;;;5097554;28;20726;-79
2023/08/17 10:39:47;;;;;;;5.20;4.80;;;27.40;95.90;;;;;;5102290;28;20640;-79
2023/08/17 10:42:14;;;;;;;5.03;4.63;;;27.50;95.80;;;;;;5082713;28;20623;-79
2023/08/17 10:44:46;;;;;;;5.57;5.17;;;27.50;94.60;;;;;;5099556;28;20663;-78
2023/08/17 10:47:23;;;;;;;5.63;5.13;;;27.50;95.00;;;;;;5100326;28;20629;-79
2023/08/17 10:49:51;;;;;;;5.83;5.33;;;27.40;94.10;;;;;;5097856;28;20746;-78
2023/08/17 10:52:27;;;;;;;5.70;5.20;;;27.30;95.20;;;;;;5100512;28;20759;-79
2023/08/17 10:54:54;;;;;;;5.73;5.23;;;27.60;95.20;;;;;;5090611;28;21235;-79
2023/08/17 10:57:32;;;;;;;5.97;5.47;;;27.80;94.90;;;;;;5099756;28;20625;-79
2023/08/17 11:00:20;;;;;;;6.10;5.50;;;27.70;93.00;;;;;;5096979;28;20629;-79
2023/08/17 11:02:52;;;;;;;6.70;6.10;;;27.80;93.30;;;;;;5089953;28;20634;-79
2023/08/17 11:05:35;;;;;;;5.83;5.33;;;27.90;93.10;;;;;;5090401;28;20648;-80
2023/08/17 11:08:03;;;;;;;6.30;5.70;;;28.00;93.70;;;;;;5091316;28;20646;-80
2023/08/17 11:10:30;;;;;;;6.87;6.27;;;28.20;92.70;;;;;;5090544;28;20753;-80
2023/08/17 11:12:59;;;;;;;5.73;5.20;;;28.50;93.50;;;;;;5089532;28;20635;-80
2023/08/17 11:15:37;;;;;;;6.57;5.53;;;28.70;92.30;;;;;;5096216;28;20735;-80
2023/08/17 11:18:05;;;;;;;6.80;6.20;;;28.90;92.30;;;;;;5098145;28;20620;-80
2023/08/17 11:20:32;;;;;;;6.07;5.47;;;28.90;92.00;;;;;;5088673;28;20967;-80
2023/08/17 11:22:59;;;;;;;6.33;5.73;;;28.90;92.00;;;;;;5093106;28;20620;-80
2023/08/17 11:25:27;;;;;;;6.07;5.47;;;28.60;89.90;;;;;;5096189;28;20687;-81
2023/08/17 11:27:54;;;;;;;5.50;5.10;;;28.80;90.40;;;;;;5100218;28;20618;-80
2023/08/17 11:30:22;;;;;;;6.87;6.23;;;29.00;91.00;;;;;;5097088;28;20931;-80
2023/08/17 11:32:50;;;;;;;5.90;5.40;;;28.60;90.00;;;;;;5083977;28;21166;-80
2023/08/17 11:35:17;;;;;;;5.50;5.00;;;28.60;92.40;;;;;;5082897;28;20622;-80
2023/08/17 11:37:44;;;;;;;6.27;5.77;;;28.60;91.40;;;;;;5088207;28;20609;-80
2023/08/17 11:40:12;;;;;;;5.50;5.00;;;28.80;91.20;;;;;;5081652;28;20696;-79
2023/08/17 11:42:39;;;;;;;6.30;5.30;;;29.10;91.10;;;;;;5092723;28;20621;-80
2023/08/17 11:45:09;;;;;;;4.87;4.50;;;28.60;88.20;;;;;;5088501;28;20663;-80
2023/08/17 11:47:36;;;;;;;5.00;4.60;;;28.50;90.00;;;;;;5094992;28;20662;-80
2023/08/17 11:50:05;;;;;;;5.83;5.33;;;28.50;92.00;;;;;;5084254;28;21058;-80
2023/08/17 11:52:32;;;;;;;5.03;4.63;;;28.50;91.80;;;;;;5081676;28;20648;-80
2023/08/17 11:54:59;;;;;;;5.90;5.40;;;28.30;91.40;;;;;;5082743;28;20638;-80
2023/08/17 11:57:27;;;;;;;4.93;4.53;;;28.50;91.80;;;;;;5087721;28;20636;-80
2023/08/17 11:59:55;;;;;;;5.03;4.57;;;28.50;90.60;;;;;;5087348;28;21797;-80
2023/08/17 12:02:23;;;;;;;5.60;5.20;;;28.20;90.10;;;;;;5085991;28;21831;-80
2023/08/17 12:04:51;;;;;;;5.30;4.90;;;28.20;90.40;;;;;;5087327;28;20713;-79
2023/08/17 12:07:19;;;;;;;5.37;4.97;;;28.10;91.20;;;;;;5087306;28;20642;-80
2023/08/17 12:09:47;;;;;;;5.33;4.87;;;28.20;92.50;;;;;;5086860;28;20632;-80
2023/08/17 12:12:13;;;;;;;6.10;4.97;;;28.20;91.30;;;;;;5087331;28;21499;-80
2023/08/17 12:14:43;;;;;;;4.70;4.40;;;28.30;91.00;;;;;;5087416;28;20631;-80
2023/08/17 12:17:16;;;;;;;8.37;5.07;;;28.40;91.90;;;;;;5088083;28;20632;-80
2023/08/17 12:19:42;;;;;;;8.80;5.90;;;28.30;92.50;;;;;;5085685;28;20624;-80
2023/08/17 12:22:09;;;;;;;5.60;5.10;;;28.00;91.60;;;;;;5087499;28;20642;-79
2023/08/17 12:24:38;;;;;;;5.83;5.33;;;27.80;94.00;;;;;;5086291;28;20621;-80
2023/08/17 12:27:06;;;;;;;5.50;5.00;;;27.70;94.50;;;;;;5087646;28;20657;-80
2023/08/17 12:29:33;;;;;;;5.53;5.03;;;27.70;94.20;;;;;;5086905;28;20624;-80
2023/08/17 12:32:02;;;;;;;5.00;4.60;;;27.50;93.60;;;;;;5086256;28;20637;-80
2023/08/17 12:34:29;;;;;;;5.93;5.53;;;27.40;94.10;;;;;;5087513;28;21092;-80
2023/08/17 12:36:55;;;;;;;6.77;5.93;;;27.30;95.00;;;;;;5086459;28;20631;-80
2023/08/17 12:39:22;;;;;;;5.90;5.30;;;27.30;96.30;;;;;;5086877;28;21662;-80
2023/08/17 12:41:50;;;;;;;6.23;5.63;;;27.40;96.10;;;;;;5086183;28;20646;-80
2023/08/17 12:44:17;;;;;;;6.93;6.33;;;27.40;96.80;;;;;;5086577;28;20636;-80
2023/08/17 12:46:44;;;;;;;12.27;7.43;;;27.30;97.50;;;;;;5086892;28;20645;-80